createdAt,value
2023-02-12T00:02:10.075Z,44.42
2023-02-12T00:04:40.510Z,46.78
2023-02-12T00:07:12.765Z,42.35
2023-02-12T00:09:57.364Z,45.85
2023-02-12T00:12:29.870Z,40.97
2023-02-12T00:14:58.741Z,51.47
2023-02-12T00:17:29.314Z,40.35
2023-02-12T00:20:03.992Z,40.88
2023-02-12T00:22:35.124Z,46.13
2023-02-12T00:25:03.618Z,48.08
2023-02-12T00:27:36.636Z,39.28
2023-02-12T00:32:38.905Z,39.72
2023-02-12T00:35:07.847Z,44.97
2023-02-12T00:37:36.289Z,43.30
2023-02-12T00:40:05.458Z,34.38
2023-02-12T00:42:35.665Z,47.60
2023-02-12T00:45:05.362Z,39.70
2023-02-12T00:47:36.628Z,42.65
2023-02-12T00:50:06.522Z,34.63
2023-02-12T00:52:36.277Z,39.70
2023-02-12T00:55:07.971Z,42.35
2023-02-12T00:57:36.560Z,36.15
2023-02-12T01:00:05.904Z,44.03
2023-02-12T01:02:36.772Z,38.42
2023-02-12T01:05:05.667Z,39.58
2023-02-12T01:07:36.218Z,39.60
2023-02-12T01:10:04.502Z,38.20
2023-02-12T01:12:33.548Z,37.50
2023-02-12T01:15:04.795Z,39.53
2023-02-12T01:17:33.472Z,36.42
2023-02-12T01:20:07.189Z,37.97
2023-02-12T01:22:38.857Z,40.00
2023-02-12T01:25:08.319Z,37.83
2023-02-12T01:27:38.962Z,39.75
2023-02-12T01:30:12.958Z,38.75
2023-02-12T01:32:41.766Z,41.38
2023-02-12T01:35:14.153Z,42.30
2023-02-12T01:37:44.797Z,44.83
2023-02-12T01:40:20.062Z,44.58
2023-02-12T01:42:49.209Z,38.05
2023-02-12T01:45:48.889Z,36.58
2023-02-12T01:48:19.900Z,36.95
2023-02-12T01:50:56.462Z,37.25
2023-02-12T01:53:37.007Z,42.10
2023-02-12T01:56:05.626Z,38.65
2023-02-12T01:58:39.183Z,34.30
2023-02-12T02:01:11.421Z,40.53
2023-02-12T02:03:44.004Z,35.20
2023-02-12T02:06:21.433Z,39.72
2023-02-12T02:08:51.057Z,38.35
2023-02-12T02:11:43.382Z,39.88
2023-02-12T02:14:31.156Z,33.90
2023-02-12T02:17:10.058Z,35.88
2023-02-12T02:20:13.225Z,38.20
2023-02-12T02:23:06.043Z,37.63
2023-02-12T02:26:06.015Z,37.88
2023-02-12T02:28:59.351Z,39.28
2023-02-12T02:31:37.774Z,41.47
2023-02-12T02:34:13.457Z,38.38
2023-02-12T02:36:59.827Z,37.22
2023-02-12T02:39:37.739Z,36.75
2023-02-12T02:42:12.285Z,37.85
2023-02-12T02:44:46.442Z,36.13
2023-02-12T02:47:20.632Z,37.20
2023-02-12T02:49:53.203Z,42.22
2023-02-12T02:52:38.909Z,42.45
2023-02-12T02:55:16.316Z,37.80
2023-02-12T02:57:50.160Z,41.10
2023-02-12T03:00:29.062Z,41.53
2023-02-12T03:03:06.480Z,43.85
2023-02-12T03:05:39.967Z,40.33
2023-02-12T03:08:14.985Z,38.08
2023-02-12T03:10:48.855Z,40.70
2023-02-12T03:13:36.770Z,42.05
2023-02-12T03:16:13.436Z,36.75
2023-02-12T03:18:52.678Z,35.08
2023-02-12T03:21:31.535Z,37.65
2023-02-12T03:24:07.510Z,40.17
2023-02-12T03:26:42.876Z,42.75
2023-02-12T03:29:16.125Z,40.05
2023-02-12T03:32:08.391Z,44.60
2023-02-12T03:34:50.221Z,41.58
2023-02-12T03:37:23.969Z,41.90
2023-02-12T03:40:03.018Z,44.38
2023-02-12T03:42:40.115Z,41.83
2023-02-12T03:45:16.291Z,43.47
2023-02-12T03:47:50.814Z,43.03
2023-02-12T03:50:31.006Z,40.33
2023-02-12T03:53:02.386Z,45.50
2023-02-12T03:55:33.949Z,39.75
2023-02-12T03:58:04.516Z,41.72
2023-02-12T04:00:33.031Z,45.80
2023-02-12T04:03:04.601Z,40.83
2023-02-12T04:05:35.444Z,41.15
2023-02-12T04:08:05.333Z,38.90
2023-02-12T04:10:40.037Z,42.22
2023-02-12T04:13:20.230Z,41.80
2023-02-12T04:15:58.831Z,39.33
2023-02-12T04:18:37.466Z,42.53
2023-02-12T04:21:15.278Z,38.63
2023-02-12T04:23:53.915Z,43.67
2023-02-12T04:26:37.297Z,41.92
2023-02-12T04:29:26.756Z,40.35
2023-02-12T04:31:59.391Z,45.28
2023-02-12T04:34:37.076Z,42.85
2023-02-12T04:37:14.179Z,43.40
2023-02-12T04:39:46.398Z,43.22
2023-02-12T04:42:18.125Z,44.20
2023-02-12T04:44:47.363Z,43.60
2023-02-12T04:47:18.396Z,42.75
2023-02-12T04:49:48.185Z,46.38
2023-02-12T04:52:22.817Z,45.67
2023-02-12T04:54:54.721Z,42.13
2023-02-12T04:57:24.200Z,45.80
2023-02-12T04:59:53.211Z,41.17
2023-02-12T05:02:25.210Z,44.63
2023-02-12T05:04:54.158Z,46.05
2023-02-12T05:07:27.239Z,45.55
2023-02-12T05:09:58.299Z,45.00
2023-02-12T05:12:35.195Z,43.45
2023-02-12T05:15:04.271Z,44.10
2023-02-12T05:17:32.992Z,43.50
2023-02-12T05:20:01.573Z,40.88
2023-02-12T05:22:33.026Z,43.20
2023-02-12T05:25:02.274Z,39.30
2023-02-12T05:27:34.191Z,40.92
2023-02-12T05:30:03.226Z,39.42
2023-02-12T05:32:31.805Z,42.50
2023-02-12T05:35:01.683Z,42.70
2023-02-12T05:37:44.458Z,40.38
2023-02-12T05:40:13.562Z,39.78
2023-02-12T05:42:42.315Z,35.92
2023-02-12T05:45:13.650Z,33.63
2023-02-12T05:47:42.673Z,36.90
2023-02-12T05:50:18.818Z,39.92
2023-02-12T05:52:57.080Z,38.95
2023-02-12T05:55:27.498Z,36.63
2023-02-12T05:57:55.985Z,35.40
2023-02-12T06:00:27.547Z,36.03
2023-02-12T06:02:59.420Z,37.42
2023-02-12T06:05:39.033Z,37.17
2023-02-12T06:08:12.872Z,44.05
2023-02-12T06:10:44.314Z,39.17
2023-02-12T06:13:14.173Z,39.58
2023-02-12T06:15:48.307Z,37.78
2023-02-12T06:18:19.876Z,45.10
2023-02-12T06:20:50.772Z,43.55
2023-02-12T06:23:28.898Z,35.53
2023-02-12T06:25:58.670Z,37.10
2023-02-12T06:28:30.943Z,38.13
2023-02-12T06:31:01.030Z,38.17
2023-02-12T06:33:33.114Z,43.10
2023-02-12T06:36:05.128Z,40.72
2023-02-12T06:38:36.339Z,45.42
2023-02-12T06:41:05.924Z,40.80
2023-02-12T06:43:35.593Z,38.63
2023-02-12T06:46:04.540Z,41.28
2023-02-12T06:48:35.386Z,38.97
2023-02-12T06:51:13.911Z,39.55
2023-02-12T06:53:43.990Z,44.92
2023-02-12T06:56:16.631Z,45.35
2023-02-12T06:58:48.823Z,49.45
2023-02-12T07:01:19.288Z,45.03
2023-02-12T07:03:52.131Z,47.55
2023-02-12T07:06:22.702Z,48.90
2023-02-12T07:08:52.571Z,46.45
2023-02-12T07:11:25.098Z,51.38
2023-02-12T07:13:57.248Z,49.08
2023-02-12T07:16:26.555Z,54.43
2023-02-12T07:18:55.909Z,49.63
2023-02-12T07:21:26.792Z,53.65
2023-02-12T07:23:57.198Z,52.85
2023-02-12T07:26:26.160Z,48.75
2023-02-12T07:28:55.333Z,53.58
2023-02-12T07:31:30.934Z,53.85
2023-02-12T07:34:03.035Z,51.95
2023-02-12T07:36:32.886Z,54.17
2023-02-12T07:39:08.120Z,50.65
2023-02-12T07:41:39.363Z,53.15
2023-02-12T07:44:10.403Z,49.80
2023-02-12T07:46:41.664Z,50.28
2023-02-12T07:49:17.566Z,55.03
2023-02-12T07:51:49.791Z,54.80
2023-02-12T07:54:19.762Z,52.33
2023-02-12T07:56:49.441Z,54.42
2023-02-12T07:59:21.622Z,51.47
2023-02-12T08:01:51.880Z,59.07
2023-02-12T08:04:27.776Z,57.95
2023-02-12T08:06:57.416Z,59.13
2023-02-12T08:09:31.430Z,57.92
2023-02-12T08:12:00.016Z,54.45
2023-02-12T08:14:28.718Z,55.75
2023-02-12T08:17:01.996Z,56.53
2023-02-12T08:19:30.462Z,53.28
2023-02-12T08:21:59.581Z,61.88
2023-02-12T08:24:32.450Z,53.25
2023-02-12T08:27:00.796Z,51.25
2023-02-12T08:29:44.368Z,55.85
2023-02-12T08:32:14.560Z,52.13
2023-02-12T08:34:46.828Z,52.97
2023-02-12T08:37:15.437Z,51.97
2023-02-12T08:39:48.114Z,52.65
2023-02-12T08:42:16.524Z,51.92
2023-02-12T08:44:46.112Z,53.40
2023-02-12T08:47:18.084Z,52.20
2023-02-12T08:49:52.751Z,55.55
2023-02-12T08:52:22.829Z,50.88
2023-02-12T08:54:52.730Z,54.45
2023-02-12T08:57:23.954Z,52.05
2023-02-12T08:59:55.407Z,52.70
2023-02-12T09:02:25.388Z,51.50
2023-02-12T09:04:54.428Z,54.88
2023-02-12T09:07:23.397Z,46.88
2023-02-12T09:09:57.414Z,47.45
2023-02-12T09:12:27.217Z,47.78
2023-02-12T09:14:55.813Z,48.55
2023-02-12T09:17:27.846Z,51.20
2023-02-12T09:19:56.556Z,50.60
2023-02-12T09:22:25.474Z,45.70
2023-02-12T09:24:58.434Z,49.58
2023-02-12T09:27:28.658Z,49.17
2023-02-12T09:29:59.160Z,46.13
2023-02-12T09:32:27.488Z,51.95
2023-02-12T09:34:56.346Z,49.67
2023-02-12T09:37:24.853Z,49.90
2023-02-12T09:39:56.544Z,51.47
2023-02-12T09:42:52.415Z,50.17
2023-02-12T09:45:31.710Z,45.47
2023-02-12T09:48:12.211Z,51.25
2023-02-12T09:50:52.119Z,53.10
2023-02-12T09:53:28.326Z,49.03
2023-02-12T09:56:00.269Z,49.30
2023-02-12T09:58:36.341Z,55.22
2023-02-12T10:01:14.222Z,51.63
2023-02-12T10:03:46.046Z,51.17
2023-02-12T10:06:19.203Z,52.30
2023-02-12T10:12:03.896Z,53.13
2023-02-12T10:14:59.693Z,52.38
2023-02-12T10:17:39.381Z,50.33
2023-02-12T10:20:29.241Z,49.53
2023-02-12T10:23:19.443Z,54.47
2023-02-12T10:25:53.860Z,52.25
2023-02-12T10:28:31.336Z,53.97
2023-02-12T10:31:03.875Z,53.55
2023-02-12T10:33:40.035Z,53.38
2023-02-12T10:36:20.215Z,50.20
2023-02-12T10:38:53.103Z,49.22
2023-02-12T10:41:25.617Z,52.42
2023-02-12T10:44:03.108Z,55.35
2023-02-12T10:46:34.559Z,50.83
2023-02-12T10:49:03.650Z,48.42
2023-02-12T10:51:52.094Z,49.05
2023-02-12T10:54:46.724Z,46.63
2023-02-12T10:57:27.844Z,47.55
2023-02-12T11:00:18.340Z,49.85
2023-02-12T11:03:07.465Z,52.05
2023-02-12T11:05:55.625Z,49.50
2023-02-12T11:08:37.557Z,52.03
2023-02-12T11:11:14.433Z,49.97
2023-02-12T11:13:50.435Z,48.75
2023-02-12T11:16:53.736Z,48.95
2023-02-12T11:19:31.901Z,45.95
2023-02-12T11:22:09.300Z,45.75
2023-02-12T11:24:43.234Z,44.92
2023-02-12T11:27:33.288Z,44.08
2023-02-12T11:30:21.976Z,47.67
2023-02-12T11:32:52.860Z,45.28
2023-02-12T11:35:28.809Z,44.63
2023-02-12T11:38:04.064Z,45.47
2023-02-12T11:40:39.284Z,46.83
2023-02-12T11:43:20.976Z,44.03
2023-02-12T11:46:01.113Z,38.50
2023-02-12T11:48:50.170Z,32.83
2023-02-12T11:51:33.867Z,31.98
2023-02-12T11:54:09.370Z,35.22
2023-02-12T11:56:50.913Z,33.05
2023-02-12T11:59:43.116Z,24.58
2023-02-12T12:02:27.747Z,22.30
2023-02-12T12:05:09.721Z,22.88
2023-02-12T12:07:51.662Z,22.17
2023-02-12T12:10:35.461Z,24.67
2023-02-12T12:13:12.246Z,22.23
2023-02-12T12:16:04.029Z,24.17
2023-02-12T12:21:58.305Z,23.55
2023-02-12T12:24:41.911Z,23.33
2023-02-12T12:27:39.395Z,22.63
2023-02-12T12:30:18.325Z,19.27
2023-02-12T12:32:49.340Z,16.27
2023-02-12T12:35:29.502Z,16.98
2023-02-12T12:38:05.661Z,13.75
2023-02-12T12:40:54.518Z,13.10
2023-02-12T12:46:59.093Z,13.48
2023-02-12T12:49:45.484Z,12.27
2023-02-12T12:52:46.971Z,13.13
2023-02-12T12:55:45.609Z,12.07
2023-02-12T12:58:30.986Z,12.15
2023-02-12T13:01:19.715Z,9.45
2023-02-12T13:04:38.544Z,9.93
2023-02-12T13:07:31.567Z,11.77
2023-02-12T13:10:23.134Z,11.07
2023-02-12T13:13:07.017Z,10.02
2023-02-12T13:15:50.264Z,9.43
2023-02-12T13:18:30.030Z,8.82
2023-02-12T13:21:20.850Z,7.03
2023-02-12T13:23:55.512Z,6.68
2023-02-12T13:26:31.510Z,6.38
2023-02-12T13:29:12.284Z,9.27
2023-02-12T13:31:59.265Z,7.95
2023-02-12T13:34:38.398Z,7.97
2023-02-12T13:37:33.528Z,5.97
2023-02-12T13:40:10.184Z,7.07
2023-02-12T13:42:51.344Z,6.13
2023-02-12T13:45:56.132Z,7.25
2023-02-12T13:48:41.894Z,6.95
2023-02-12T13:51:30.553Z,5.40
2023-02-12T13:54:22.906Z,7.88
2023-02-12T13:56:53.663Z,5.05
2023-02-12T13:59:42.172Z,7.45
2023-02-12T14:02:42.713Z,5.93
2023-02-12T14:05:34.040Z,6.10
2023-02-12T14:08:05.753Z,6.95
2023-02-12T14:10:54.442Z,7.95
2023-02-12T14:13:36.637Z,6.65
2023-02-12T14:16:35.152Z,8.15
2023-02-12T14:19:40.437Z,6.28
2023-02-12T14:22:15.839Z,6.63
2023-02-12T14:24:52.912Z,8.02
2023-02-12T14:27:37.129Z,6.80
2023-02-12T14:30:33.812Z,4.82
2023-02-12T14:33:27.890Z,6.47
2023-02-12T14:36:19.923Z,6.68
2023-02-12T14:39:06.699Z,6.70
2023-02-12T14:41:42.003Z,6.20
2023-02-12T14:44:48.961Z,5.72
2023-02-12T14:47:48.576Z,7.22
2023-02-12T14:50:23.148Z,6.57
2023-02-12T14:53:00.624Z,8.00
2023-02-12T14:55:35.357Z,6.07
2023-02-12T14:58:11.519Z,7.40
2023-02-12T15:00:41.606Z,7.20
2023-02-12T15:03:24.316Z,5.35
2023-02-12T15:06:01.846Z,6.70
2023-02-12T15:08:44.501Z,7.43
2023-02-12T15:11:37.927Z,6.30
2023-02-12T15:14:09.207Z,7.30
2023-02-12T15:16:49.740Z,7.20
2023-02-12T15:19:40.537Z,8.95
2023-02-12T15:22:22.082Z,6.95
2023-02-12T15:24:53.793Z,8.18
2023-02-12T15:27:23.879Z,7.85
2023-02-12T15:29:59.497Z,10.52
2023-02-12T15:32:31.134Z,8.23
2023-02-12T15:34:59.944Z,10.10
2023-02-12T15:37:33.552Z,8.23
2023-02-12T15:40:08.507Z,8.80
2023-02-12T15:42:43.269Z,7.40
2023-02-12T15:45:25.476Z,10.30
2023-02-12T15:48:33.338Z,6.78
2023-02-12T15:51:13.202Z,8.60
2023-02-12T15:53:47.442Z,9.05
2023-02-12T15:56:20.441Z,7.65
2023-02-12T15:58:53.933Z,9.38
2023-02-12T16:01:42.172Z,10.90
2023-02-12T16:04:11.285Z,11.65
2023-02-12T16:06:41.928Z,10.82
2023-02-12T16:09:23.482Z,13.60
2023-02-12T16:11:52.561Z,17.70
2023-02-12T16:14:29.434Z,20.98
2023-02-12T16:17:00.909Z,22.33
2023-02-12T16:19:38.571Z,25.27
2023-02-12T16:22:19.557Z,26.92
2023-02-12T16:24:53.691Z,25.35
2023-02-12T16:27:25.517Z,26.58
2023-02-12T16:30:08.397Z,28.27
2023-02-12T16:32:46.950Z,26.35
2023-02-12T16:35:26.647Z,29.08
2023-02-12T16:38:01.087Z,31.90
2023-02-12T16:40:38.938Z,32.58
2023-02-12T16:43:27.202Z,27.90
2023-02-12T16:46:12.831Z,29.95
2023-02-12T16:48:44.141Z,33.55
2023-02-12T16:51:24.763Z,29.58
2023-02-12T16:54:05.452Z,32.25
2023-02-12T16:56:39.860Z,30.70
2023-02-12T16:59:10.319Z,33.13
2023-02-12T17:01:43.945Z,31.85
2023-02-12T17:04:21.877Z,33.25
2023-02-12T17:06:53.272Z,37.42
2023-02-12T17:09:24.513Z,37.55
2023-02-12T17:11:54.164Z,37.60
2023-02-12T17:14:24.545Z,35.42
2023-02-12T17:17:02.846Z,38.15
2023-02-12T17:19:35.171Z,38.13
2023-02-12T17:22:06.477Z,40.78
2023-02-12T17:24:38.301Z,40.75
2023-02-12T17:27:09.309Z,42.00
2023-02-12T17:29:38.268Z,39.60
2023-02-12T17:32:16.414Z,40.45
2023-02-12T17:34:48.650Z,41.63
2023-02-12T17:37:18.432Z,42.97
2023-02-12T17:39:50.823Z,41.40
2023-02-12T17:42:19.267Z,45.17
2023-02-12T17:44:51.655Z,45.00
2023-02-12T17:47:28.703Z,46.53
2023-02-12T17:50:00.499Z,46.65
2023-02-12T17:52:33.673Z,49.20
2023-02-12T17:55:07.750Z,47.45
2023-02-12T17:57:36.499Z,47.72
2023-02-12T18:00:21.500Z,53.72
2023-02-12T18:02:53.352Z,60.58
2023-02-12T18:05:23.566Z,52.78
2023-02-12T18:07:54.167Z,46.20
2023-02-12T18:10:23.743Z,49.00
2023-02-12T18:12:54.220Z,48.10
2023-02-12T18:15:23.943Z,51.38
2023-02-12T18:17:56.895Z,46.72
2023-02-12T18:20:26.014Z,50.85
2023-02-12T18:22:54.516Z,48.78
2023-02-12T18:25:27.370Z,52.58
2023-02-12T18:27:56.214Z,51.33
2023-02-12T18:30:25.497Z,56.47
2023-02-12T18:33:00.606Z,56.13
2023-02-12T18:35:31.341Z,56.60
2023-02-12T18:38:10.495Z,56.10
2023-02-12T18:40:42.231Z,51.70
2023-02-12T18:43:10.526Z,61.10
2023-02-12T18:45:42.487Z,58.65
2023-02-12T18:48:14.159Z,57.63
2023-02-12T18:50:44.022Z,59.35
2023-02-12T18:53:14.763Z,59.50
2023-02-12T18:55:47.387Z,64.18
2023-02-12T18:58:16.371Z,58.20
2023-02-12T19:00:49.597Z,62.40
2023-02-12T19:03:21.845Z,62.60
2023-02-12T19:05:52.165Z,63.22
2023-02-12T19:08:23.853Z,60.20
2023-02-12T19:10:53.278Z,62.65
2023-02-12T19:13:27.156Z,63.00
2023-02-12T19:15:57.580Z,66.22
2023-02-12T19:18:35.160Z,66.05
2023-02-12T19:21:12.390Z,63.25
2023-02-12T19:26:38.894Z,63.92
2023-02-12T19:29:18.814Z,80.60
2023-02-12T19:31:53.607Z,69.85
2023-02-12T19:34:25.689Z,60.35
2023-02-12T19:36:56.197Z,69.07
2023-02-12T19:39:34.215Z,77.35
2023-02-12T19:42:04.131Z,76.43
2023-02-12T19:44:33.543Z,72.43
2023-02-12T19:47:08.906Z,65.85
2023-02-12T19:49:42.208Z,67.57
2023-02-12T19:52:12.616Z,59.20
2023-02-12T19:54:43.196Z,64.97
2023-02-12T19:57:13.824Z,60.75
2023-02-12T19:59:46.771Z,73.18
2023-02-12T20:04:45.906Z,56.88
2023-02-12T20:07:15.205Z,63.50
2023-02-12T20:09:46.733Z,69.50
2023-02-12T20:12:17.534Z,65.00
2023-02-12T20:14:50.401Z,61.95
2023-02-12T20:17:20.286Z,66.25
2023-02-12T20:19:57.585Z,71.00
2023-02-12T20:22:26.726Z,65.57
2023-02-12T20:24:55.672Z,72.18
2023-02-12T20:27:25.579Z,76.47
2023-02-12T20:29:56.053Z,70.53
2023-02-12T20:32:24.879Z,56.85
2023-02-12T20:34:56.306Z,64.22
2023-02-12T20:37:26.184Z,66.22
2023-02-12T20:40:00.142Z,69.55
2023-02-12T20:42:29.886Z,67.18
2023-02-12T20:44:59.623Z,74.28
2023-02-12T20:47:30.390Z,71.60
2023-02-12T20:50:12.991Z,70.47
2023-02-12T20:52:42.488Z,79.38
2023-02-12T20:55:24.447Z,77.70
2023-02-12T20:58:00.159Z,77.35
2023-02-12T21:00:50.809Z,84.10
2023-02-12T21:06:05.996Z,80.22
2023-02-12T21:08:39.506Z,82.88
2023-02-12T21:11:15.439Z,84.60
2023-02-12T21:14:02.537Z,79.95
2023-02-12T21:16:45.514Z,76.20
2023-02-12T21:19:28.024Z,79.93
2023-02-12T21:22:06.501Z,81.65
2023-02-12T21:24:42.642Z,85.88
2023-02-12T21:27:37.211Z,82.88
2023-02-12T21:30:32.905Z,82.72
2023-02-12T21:33:03.596Z,76.60
2023-02-12T21:35:42.257Z,79.75
2023-02-12T21:38:13.276Z,75.20
2023-02-12T21:40:49.974Z,76.45
2023-02-12T21:43:20.079Z,74.93
2023-02-12T21:45:52.284Z,92.57
2023-02-12T21:48:23.257Z,86.93
2023-02-12T21:50:55.631Z,82.95
2023-02-12T21:53:30.915Z,82.57
2023-02-12T21:56:07.372Z,80.60
2023-02-12T21:58:41.684Z,80.85
2023-02-12T22:01:15.916Z,89.45
2023-02-12T22:04:03.858Z,84.28
2023-02-12T22:06:36.210Z,82.75
2023-02-12T22:09:09.193Z,90.03
2023-02-12T22:14:13.445Z,81.55
2023-02-12T22:16:44.215Z,85.50
2023-02-12T22:19:14.038Z,87.80
2023-02-12T22:21:45.745Z,87.30
2023-02-12T22:24:26.562Z,84.90
2023-02-12T22:27:08.197Z,93.88
2023-02-12T22:29:40.484Z,88.20
2023-02-12T22:32:11.536Z,82.78
2023-02-12T22:34:41.305Z,92.25
2023-02-12T22:37:14.025Z,87.18
2023-02-12T22:39:50.571Z,83.15
2023-02-12T22:42:22.470Z,89.22
2023-02-12T22:44:54.523Z,75.97
2023-02-12T22:47:25.204Z,94.27
2023-02-12T22:50:13.203Z,79.75
2023-02-12T22:52:43.153Z,72.68
2023-02-12T22:55:24.396Z,68.40
2023-02-12T22:57:55.614Z,71.15
2023-02-12T23:00:30.245Z,72.85
2023-02-12T23:03:11.329Z,65.72
2023-02-12T23:05:42.539Z,71.20
2023-02-12T23:08:18.035Z,75.07
2023-02-12T23:10:53.390Z,79.90
2023-02-12T23:13:29.894Z,78.28
2023-02-12T23:15:58.665Z,77.60
2023-02-12T23:18:36.686Z,71.32
2023-02-12T23:21:05.310Z,78.22
2023-02-12T23:23:39.457Z,96.35
2023-02-12T23:26:09.581Z,97.45
2023-02-12T23:28:47.618Z,74.43
2023-02-12T23:31:23.320Z,71.97
2023-02-12T23:33:53.103Z,73.55
2023-02-12T23:36:26.104Z,90.28
2023-02-12T23:41:48.832Z,86.35
2023-02-12T23:44:17.542Z,74.78
2023-02-12T23:46:48.385Z,88.85
2023-02-12T23:49:22.523Z,87.68
2023-02-12T23:51:56.896Z,82.15
2023-02-12T23:54:30.846Z,77.10
2023-02-12T23:57:06.285Z,85.60
2023-02-12T23:59:56.608Z,101.50
